Time;durP1;ratioP1;P1;durP2;ratioP2;P2;SDS_P1;SDS_P2;PMS_P1;PMS_P2;Temp;Humidity;BMP_temperature;BMP_pressure;BME280_temperature;BME280_humidity;BME280_pressure;Samples;Min_cycle;Max_cycle;Signal;HPM_P1;HPM_P2
2022/05/29 00:02:12;;;;;;;11.10;5.50;;;;;;;12.63;50.19;98717.05;233826;1215;140332;-62
2022/05/29 00:07:17;;;;;;;8.30;5.00;;;;;;;12.56;50.38;98709.22;233977;1216;139102;-63
2022/05/29 00:12:22;;;;;;;14.10;5.50;;;;;;;12.50;50.71;98714.14;233599;1217;138868;-62
2022/05/29 00:17:26;;;;;;;12.40;6.20;;;;;;;12.47;51.09;98715.79;233310;1217;140315;-62
2022/05/29 00:22:31;;;;;;;13.20;5.60;;;;;;;12.49;50.74;98713.52;233298;1217;141254;-62
2022/05/29 00:27:34;;;;;;;10.80;6.20;;;;;;;12.48;51.18;98710.73;233208;1217;139151;-63
2022/05/29 00:32:37;;;;;;;10.50;6.40;;;;;;;12.42;51.28;98710.83;233227;1218;139195;-62
2022/05/29 00:37:41;;;;;;;11.30;6.30;;;;;;;12.39;51.34;98709.58;233328;1217;139038;-63
2022/05/29 00:42:44;;;;;;;12.80;5.80;;;;;;;12.37;51.68;98710.61;233451;1217;139263;-61
2022/05/29 00:47:48;;;;;;;9.90;5.80;;;;;;;12.34;51.44;98712.11;233382;1217;139699;-64
2022/05/29 00:52:51;;;;;;;8.00;4.80;;;;;;;12.31;51.13;98713.42;233262;1217;138937;-60
2022/05/29 00:58:00;;;;;;;11.80;4.70;;;;;;;12.30;51.17;98710.48;233316;1217;138864;-61
2022/05/29 01:03:04;;;;;;;9.90;5.20;;;;;;;12.28;51.43;98715.39;233485;1217;140279;-61
2022/05/29 01:08:16;;;;;;;8.80;4.50;;;;;;;12.26;51.25;98709.11;233389;1217;140616;-61
2022/05/29 01:13:43;;;;;;;8.10;4.20;;;;;;;12.24;51.37;98713.73;233560;1217;138785;-62
2022/05/29 01:19:11;;;;;;;8.90;4.70;;;;;;;12.17;51.14;98717.45;233317;1217;139909;-60
2022/05/29 01:24:37;;;;;;;11.80;5.30;;;;;;;12.10;51.31;98706.06;233314;1217;139049;-61
2022/05/29 01:29:54;;;;;;;10.10;5.10;;;;;;;12.02;51.33;98712.69;233449;1217;138893;-61
2022/05/29 01:35:10;;;;;;;9.40;5.30;;;;;;;11.95;51.83;98711.83;233359;1217;141347;-61
2022/05/29 01:40:21;;;;;;;;;;;;;;;11.90;51.56;98712.37;233316;1217;140036;-61
2022/05/29 01:45:57;;;;;;;9.10;4.60;;;;;;;11.82;51.68;98711.27;233429;1217;125237;-60
2022/05/29 01:51:12;;;;;;;8.00;4.70;;;;;;;11.75;51.91;98708.63;233394;1217;138414;-61
2022/05/29 01:56:22;;;;;;;;;;;;;;;11.70;52.29;98709.13;233375;1215;139544;-61
2022/05/29 02:01:32;;;;;;;10.10;5.00;;;;;;;11.65;52.08;98709.84;233536;1216;125158;-61
2022/05/29 02:12:02;;;;;;;10.30;4.90;;;;;;;11.52;52.08;98719.66;233406;1217;138868;-61
2022/05/29 02:17:16;;;;;;;9.80;5.20;;;;;;;11.42;52.29;98730.15;233460;1215;139273;-61
2022/05/29 02:22:28;;;;;;;10.80;5.40;;;;;;;11.28;52.01;98734.69;233338;1217;139527;-62
2022/05/29 02:27:36;;;;;;;10.50;5.00;;;;;;;11.22;52.36;98738.98;233300;1218;139051;-61
2022/05/29 02:32:58;;;;;;;11.00;5.40;;;;;;;11.18;52.73;98740.14;233340;1217;139245;-63
2022/05/29 02:38:06;;;;;;;12.00;5.20;;;;;;;11.15;52.81;98749.93;233310;1217;138968;-61
2022/05/29 02:43:30;;;;;;;11.50;5.70;;;;;;;11.12;53.06;98751.91;233531;1217;139274;-60
2022/05/29 02:48:33;;;;;;;9.00;5.60;;;;;;;11.10;53.02;98752.45;233171;1218;139549;-64
2022/05/29 02:53:42;;;;;;;10.00;5.10;;;;;;;11.05;53.14;98750.98;233177;1217;138322;-64
2022/05/29 02:58:50;;;;;;;12.90;5.70;;;;;;;11.02;53.32;98756.19;233351;1215;139730;-64
2022/05/29 03:04:21;;;;;;;9.60;5.50;;;;;;;11.01;53.72;98762.14;233464;1217;138985;-64
2022/05/29 03:09:47;;;;;;;12.30;6.00;;;;;;;10.97;53.85;98768.23;233457;1217;139541;-60
2022/05/29 03:14:58;;;;;;;11.90;5.80;;;;;;;10.98;54.10;98767.84;233432;1215;139200;-60
2022/05/29 03:20:36;;;;;;;10.70;6.30;;;;;;;10.97;53.93;98767.34;233405;1215;139357;-63
2022/05/29 03:25:44;;;;;;;13.40;5.80;;;;;;;10.96;54.29;98765.80;233421;1217;138683;-60
2022/05/29 03:30:49;;;;;;;10.70;5.60;;;;;;;10.97;54.45;98763.47;233437;1217;139124;-61
2022/05/29 03:35:52;;;;;;;;;;;;;;;11.00;54.66;98765.56;233542;1215;138694;-60
2022/05/29 03:40:56;;;;;;;9.70;5.80;;;;;;;11.04;54.60;98762.98;233581;1217;125216;-59
2022/05/29 03:45:59;;;;;;;9.50;5.80;;;;;;;11.09;54.65;98765.66;233465;1217;138851;-59
2022/05/29 03:51:04;;;;;;;10.30;6.30;;;;;;;11.12;54.78;98763.10;233526;1216;139019;-59
2022/05/29 03:56:07;;;;;;;10.30;6.60;;;;;;;11.18;54.60;98761.80;233342;1216;139086;-59
2022/05/29 04:01:10;;;;;;;10.90;6.20;;;;;;;11.26;54.77;98760.73;233496;1217;138972;-60
2022/05/29 04:06:14;;;;;;;12.20;6.70;;;;;;;11.33;54.78;98757.56;233430;1215;139317;-61
2022/05/29 04:16:39;;;;;;;13.80;5.60;;;;;;;11.50;54.87;98766.73;233527;1216;139940;-62
2022/05/29 04:21:43;;;;;;;10.70;5.70;;;;;;;11.56;54.46;98766.07;233392;1217;138953;-59
2022/05/29 04:26:47;;;;;;;9.90;5.70;;;;;;;11.64;54.59;98769.45;233446;1217;139334;-60
2022/05/29 04:37:12;;;;;;;11.90;6.10;;;;;;;11.80;54.62;98771.85;233555;1217;139735;-60
2022/05/29 04:42:15;;;;;;;10.90;5.50;;;;;;;11.90;54.48;98773.66;233480;1215;140134;-60
2022/05/29 04:47:18;;;;;;;8.90;5.00;;;;;;;11.99;54.32;98774.45;233265;1217;138581;-60
2022/05/29 04:52:21;;;;;;;10.20;5.90;;;;;;;12.10;54.36;98779.13;233243;1217;139470;-60
2022/05/29 04:57:24;;;;;;;9.90;5.10;;;;;;;12.20;54.59;98778.44;233334;1217;140224;-61
2022/05/29 05:02:27;;;;;;;29.10;19.80;;;;;;;12.36;55.15;98769.27;233409;1217;138660;-62
2022/05/29 05:07:30;;;;;;;11.40;5.40;;;;;;;12.58;54.37;98770.98;233280;1217;140311;-62
2022/05/29 05:12:33;;;;;;;11.10;5.20;;;;;;;12.74;54.37;98772.26;233236;1218;139028;-60
2022/05/29 05:17:36;;;;;;;8.60;5.10;;;;;;;12.83;54.09;98768.58;233355;1217;139649;-60
2022/05/29 05:22:40;;;;;;;11.70;5.70;;;;;;;12.91;54.39;98769.91;233388;1217;138881;-61
2022/05/29 05:27:44;;;;;;;160.40;121.40;;;;;;;12.98;54.02;98763.53;233544;1217;140209;-61
2022/05/29 05:32:47;;;;;;;11.10;6.70;;;;;;;13.36;56.35;98756.70;233384;1216;139803;-62
2022/05/29 05:37:49;;;;;;;8.80;4.70;;;;;;;13.90;55.85;98758.14;233540;1216;139923;-60
2022/05/29 05:42:52;;;;;;;8.50;4.00;;;;;;;13.90;54.11;98757.98;233384;1217;138816;-62
2022/05/29 05:47:55;;;;;;;8.10;3.90;;;;;;;13.79;53.33;98759.73;233401;1217;139795;-62
2022/05/29 05:52:59;;;;;;;8.30;4.20;;;;;;;13.73;52.87;98756.80;233324;1217;138766;-63
2022/05/29 05:58:03;;;;;;;26.70;20.50;;;;;;;13.72;52.70;98756.02;233374;1217;139441;-64
2022/05/29 06:03:06;;;;;;;6.70;4.20;;;;;;;14.04;55.31;98757.59;233356;1216;139662;-62
2022/05/29 06:08:09;;;;;;;8.70;3.90;;;;;;;14.35;53.58;98756.23;233400;1217;139696;-63
2022/05/29 06:13:12;;;;;;;10.00;4.30;;;;;;;14.25;52.34;98756.34;233465;1216;138988;-63
2022/05/29 06:18:18;;;;;;;11.70;3.80;;;;;;;14.22;52.24;98753.41;233503;1216;139468;-63
2022/05/29 06:23:21;;;;;;;90.40;74.10;;;;;;;14.18;51.97;98750.73;233698;1217;139783;-62
2022/05/29 06:28:24;;;;;;;14.50;7.00;;;;;;;14.20;51.87;98750.23;233352;1217;139585;-62
2022/05/29 06:33:29;;;;;;;8.00;3.60;;;;;;;14.19;51.72;98748.27;233361;1217;139237;-61
2022/05/29 06:38:32;;;;;;;8.20;3.40;;;;;;;14.27;51.78;98747.86;233405;1215;139459;-62
2022/05/29 06:43:36;;;;;;;8.20;3.80;;;;;;;14.37;51.69;98751.82;233640;1216;139081;-59
2022/05/29 06:48:40;;;;;;;28.30;19.70;;;;;;;14.47;51.60;98751.02;233518;1217;138869;-59
2022/05/29 06:53:43;;;;;;;9.40;4.30;;;;;;;14.60;51.55;98755.81;233530;1216;139309;-59
2022/05/29 06:58:46;;;;;;;9.00;3.60;;;;;;;14.66;51.27;98750.73;233485;1215;139405;-59
2022/05/29 07:09:11;;;;;;;10.10;2.90;;;;;;;14.68;51.06;98749.81;233329;1217;139546;-59
2022/05/29 07:14:15;;;;;;;8.20;3.10;;;;;;;14.72;50.77;98747.39;233268;1217;139780;-60
2022/05/29 07:19:22;;;;;;;8.10;2.70;;;;;;;14.78;50.64;98736.08;233394;1217;139244;-61
2022/05/29 07:24:27;;;;;;;8.50;2.60;;;;;;;14.93;50.57;98733.02;233246;1217;139495;-60
2022/05/29 07:29:31;;;;;;;6.90;2.80;;;;;;;15.05;50.40;98732.39;233410;1217;139449;-58
2022/05/29 07:34:34;;;;;;;7.00;2.40;;;;;;;15.10;49.79;98730.73;233413;1217;139171;-59
2022/05/29 07:39:40;;;;;;;7.80;2.80;;;;;;;15.19;49.54;98726.55;233296;1217;140057;-60
2022/05/29 07:44:43;;;;;;;9.50;2.50;;;;;;;15.25;49.30;98716.88;233268;1217;139002;-60
2022/05/29 07:49:46;;;;;;;9.40;3.60;;;;;;;15.37;50.11;98706.02;233333;1217;139534;-60
2022/05/29 07:54:49;;;;;;;4.00;1.80;;;;;;;15.73;50.33;98705.48;233431;1217;140312;-61
2022/05/29 07:59:53;;;;;;;4.80;1.90;;;;;;;15.84;49.27;98705.10;233299;1217;139941;-60
2022/05/29 08:04:59;;;;;;;8.50;2.20;;;;;;;15.90;48.80;98711.23;233419;1217;139200;-59
2022/05/29 08:10:06;;;;;;;4.80;2.10;;;;;;;15.98;48.54;98711.39;233437;1216;139560;-58
2022/05/29 08:15:10;;;;;;;8.40;2.20;;;;;;;16.08;48.15;98713.90;233585;1216;139375;-60
2022/05/29 08:20:15;;;;;;;6.20;1.70;;;;;;;16.11;47.78;98707.74;233283;1217;140109;-61
2022/05/29 08:30:41;;;;;;;5.20;1.60;;;;;;;16.21;47.32;98714.15;233367;1217;139562;-61
2022/05/29 08:35:47;;;;;;;74.80;63.70;;;;;;;16.29;47.08;98710.98;233370;1216;139339;-60
2022/05/29 08:40:54;;;;;;;11.70;6.10;;;;;;;16.42;46.99;98706.59;233328;1217;139247;-61
2022/05/29 08:46:00;;;;;;;5.60;1.80;;;;;;;16.55;46.76;98697.66;233379;1217;141123;-61
2022/05/29 08:51:33;;;;;;;11.00;7.80;;;;;;;16.64;46.66;98691.98;233494;1216;138819;-62
2022/05/29 08:56:46;;;;;;;5.20;2.20;;;;;;;16.81;47.82;98688.40;233579;1217;140305;-61
2022/05/29 09:02:14;;;;;;;9.80;6.10;;;;;;;16.93;46.62;98688.02;233476;1217;139537;-62
2022/05/29 09:07:18;;;;;;;5.60;2.60;;;;;;;17.09;47.52;98677.92;233508;1217;138636;-61
2022/05/29 09:12:32;;;;;;;6.00;2.80;;;;;;;17.33;47.45;98678.29;233377;1217;140053;-61
2022/05/29 09:17:50;;;;;;;5.30;2.20;;;;;;;17.55;47.05;98674.08;233376;1217;141395;-59
2022/05/29 09:22:56;;;;;;;5.70;3.10;;;;;;;17.71;46.70;98675.07;233268;1217;138932;-60
2022/05/29 09:28:06;;;;;;;4.70;1.80;;;;;;;17.93;47.60;98670.55;233294;1217;138850;-58
2022/05/29 09:33:20;;;;;;;4.70;2.00;;;;;;;18.14;47.13;98670.46;233226;1217;139159;-60
2022/05/29 09:38:29;;;;;;;12.40;2.90;;;;;;;18.31;46.94;98666.61;232797;1217;139296;-59
2022/05/29 09:43:33;;;;;;;2.80;1.50;;;;;;;18.30;46.82;98672.99;233378;1217;139676;-60
2022/05/29 09:54:03;;;;;;;4.80;2.20;;;;;;;18.28;45.60;98660.13;232996;1217;139014;-59
2022/05/29 09:59:18;;;;;;;6.70;1.80;;;;;;;18.24;45.46;98658.31;233306;1217;139996;-58
2022/05/29 10:04:30;;;;;;;173.80;119.50;;;;;;;18.45;45.74;98647.80;233494;1217;139505;-60
2022/05/29 10:10:07;;;;;;;20.90;7.40;;;;;;;18.72;45.38;98634.14;233249;1217;139767;-60
2022/05/29 10:15:24;;;;;;;39.20;14.50;;;;;;;18.75;44.34;98627.48;233421;1217;139113;-60
2022/05/29 10:20:30;;;;;;;143.10;98.80;;;;;;;18.64;44.59;98620.97;233386;1217;139308;-60
2022/05/29 10:25:40;;;;;;;15.90;10.40;;;;;;;18.62;43.78;98615.53;233513;1217;139904;-60
2022/05/29 10:30:59;;;;;;;6.40;3.70;;;;;;;18.83;43.55;98605.30;233447;1217;139270;-59
2022/05/29 10:36:15;;;;;;;46.10;13.30;;;;;;;18.91;42.89;98592.59;233430;1217;139590;-60
2022/05/29 10:41:33;;;;;;;4.70;2.10;;;;;;;19.24;42.76;98594.46;233331;1217;140054;-60
2022/05/29 10:46:43;;;;;;;56.70;44.40;;;;;;;19.35;42.20;98593.39;233324;1217;139136;-59
2022/05/29 10:51:46;;;;;;;9.30;6.00;;;;;;;19.60;42.05;98593.27;233412;1217;140279;-59
2022/05/29 10:57:15;;;;;;;31.80;15.90;;;;;;;19.96;42.03;98587.58;233463;1217;138961;-59
2022/05/29 11:08:11;;;;;;;9.00;5.40;;;;;;;20.45;40.87;98596.17;233417;1217;138615;-59
2022/05/29 11:13:51;;;;;;;4.00;1.90;;;;;;;20.36;40.35;98593.40;233391;1217;138572;-58
2022/05/29 11:19:09;;;;;;;3.60;1.20;;;;;;;20.27;39.58;98584.95;233388;1217;138638;-59
2022/05/29 11:24:23;;;;;;;4.00;1.40;;;;;;;20.21;39.33;98582.79;233367;1217;138875;-58
2022/05/29 11:29:39;;;;;;;5.60;1.30;;;;;;;20.19;39.25;98585.38;233386;1217;139302;-58
2022/05/29 11:35:23;;;;;;;123.30;87.90;;;;;;;20.19;39.67;98577.55;233481;1217;138967;-59
2022/05/29 11:40:34;;;;;;;19.20;13.20;;;;;;;20.15;40.61;98574.98;233470;1217;139299;-59
2022/05/29 11:51:22;;;;;;;6.50;3.00;;;;;;;20.38;40.30;98566.67;233363;1217;139089;-57
2022/05/29 11:56:35;;;;;;;24.70;5.90;;;;;;;20.27;40.22;98559.92;233408;1217;139628;-61
2022/05/29 12:01:42;;;;;;;9.80;3.70;;;;;;;20.21;41.08;98564.06;233406;1217;138989;-62
2022/05/29 12:07:13;;;;;;;6.30;1.80;;;;;;;20.21;41.40;98562.04;233569;1217;139317;-56
2022/05/29 12:12:32;;;;;;;132.30;115.70;;;;;;;20.15;41.37;98551.17;233504;1217;138949;-59
2022/05/29 12:17:43;;;;;;;10.00;6.40;;;;;;;20.11;40.91;98536.88;233320;1217;139594;-60
2022/05/29 12:22:49;;;;;;;9.80;5.70;;;;;;;20.12;40.69;98525.97;233332;1217;138880;-62
2022/05/29 12:27:54;;;;;;;6.30;3.10;;;;;;;20.07;40.62;98511.10;233472;1217;140449;-61
2022/05/29 12:33:02;;;;;;;8.40;2.50;;;;;;;20.11;40.38;98495.23;233449;1217;138799;-61
2022/05/29 12:38:33;;;;;;;6.10;1.60;;;;;;;20.10;40.17;98508.45;233562;1217;139352;-60
2022/05/29 12:43:41;;;;;;;4.20;1.50;;;;;;;20.05;39.94;98518.34;233442;1217;138712;-60
2022/05/29 12:49:32;;;;;;;3.70;1.20;;;;;;;20.01;39.83;98524.91;233347;1217;138725;-61
2022/05/29 12:54:56;;;;;;;5.70;1.30;;;;;;;19.93;39.39;98524.17;233396;1217;138983;-58
2022/05/29 13:00:11;;;;;;;3.40;1.10;;;;;;;19.86;39.56;98524.30;233286;1217;138660;-59
2022/05/29 13:05:32;;;;;;;4.40;1.10;;;;;;;19.83;38.89;98525.46;233434;1217;138913;-58
2022/05/29 13:10:49;;;;;;;21.40;17.60;;;;;;;19.75;38.65;98531.98;233466;1217;139373;-58
2022/05/29 13:15:52;;;;;;;12.90;6.00;;;;;;;19.68;38.91;98530.71;233536;1217;139154;-60
2022/05/29 13:21:08;;;;;;;7.70;2.90;;;;;;;19.59;38.78;98532.20;233483;1217;139521;-59
2022/05/29 13:26:17;;;;;;;4.40;3.30;;;;;;;19.54;38.87;98532.19;233339;1217;139338;-59
2022/05/29 13:31:21;;;;;;;8.70;3.90;;;;;;;19.56;39.35;98534.84;233619;1217;139309;-60
2022/05/29 13:36:47;;;;;;;50.30;37.70;;;;;;;19.63;39.19;98527.61;233275;1217;138976;-59
2022/05/29 13:41:59;;;;;;;13.20;8.70;;;;;;;19.76;39.18;98518.50;233179;1217;139702;-60
2022/05/29 13:48:01;;;;;;;6.80;3.30;;;;;;;20.04;39.21;98517.99;233434;1217;140727;-59
2022/05/29 13:53:35;;;;;;;5.20;2.00;;;;;;;20.18;38.87;98516.98;233169;1217;138751;-60
2022/05/29 14:04:07;;;;;;;2.00;1.40;;;;;;;20.59;38.67;98501.63;233419;1217;139590;-61
2022/05/29 14:09:30;;;;;;;5.40;2.10;;;;;;;20.55;38.48;98499.20;233303;1217;138978;-61
2022/05/29 14:14:34;;;;;;;6.60;1.40;;;;;;;20.51;38.56;98502.89;233340;1217;139294;-61
2022/05/29 14:19:54;;;;;;;6.50;1.60;;;;;;;20.39;38.58;98497.38;233442;1217;138678;-62
2022/05/29 14:24:58;;;;;;;57.70;47.50;;;;;;;20.35;38.66;98498.19;233548;1217;139120;-61
2022/05/29 14:30:19;;;;;;;11.90;8.70;;;;;;;20.30;38.59;98494.92;233356;1217;139501;-60
2022/05/29 14:35:32;;;;;;;6.60;3.30;;;;;;;20.22;38.83;98488.81;233361;1217;139363;-62
2022/05/29 14:40:41;;;;;;;4.20;2.70;;;;;;;20.08;38.69;98486.34;233391;1217;138733;-62
2022/05/29 14:45:56;;;;;;;5.80;1.80;;;;;;;20.01;39.11;98484.23;233142;1217;140864;-62
2022/05/29 14:51:07;;;;;;;31.20;21.50;;;;;;;19.96;39.13;98484.97;233297;1217;138752;-60
2022/05/29 14:56:12;;;;;;;6.80;4.10;;;;;;;19.94;38.89;98488.77;233294;1217;139549;-61
2022/05/29 15:01:27;;;;;;;2.70;1.30;;;;;;;19.88;38.49;98494.35;233453;1217;138964;-61
2022/05/29 15:12:14;;;;;;;6.70;4.70;;;;;;;19.74;38.84;98478.91;233243;1217;139780;-61
2022/05/29 15:17:21;;;;;;;10.30;6.30;;;;;;;19.74;38.93;98482.22;233190;1217;139086;-62
2022/05/29 15:27:51;;;;;;;4.60;3.20;;;;;;;19.66;39.23;98474.04;233384;1217;139570;-63
2022/05/29 15:33:07;;;;;;;8.10;2.80;;;;;;;19.63;39.30;98469.55;233213;1217;139426;-61
2022/05/29 15:38:10;;;;;;;8.60;2.20;;;;;;;19.56;39.35;98461.17;233371;1216;138682;-61
2022/05/29 15:43:32;;;;;;;7.10;2.50;;;;;;;19.51;39.34;98461.14;233537;1216;139244;-61
2022/05/29 15:48:56;;;;;;;4.50;1.80;;;;;;;19.47;39.29;98460.05;233370;1217;138772;-62
2022/05/29 15:54:09;;;;;;;4.60;1.40;;;;;;;19.42;39.43;98457.20;233456;1217;138602;-62
2022/05/29 15:59:20;;;;;;;52.40;46.80;;;;;;;19.39;39.54;98458.92;233377;1217;139262;-62
2022/05/29 16:04:42;;;;;;;10.00;3.00;;;;;;;19.41;39.12;98462.54;233241;1217;140006;-62
2022/05/29 16:09:54;;;;;;;5.80;1.90;;;;;;;19.27;38.64;98456.29;233313;1217;140170;-61
2022/05/29 16:14:58;;;;;;;13.60;6.60;;;;;;;19.11;38.71;98455.14;233390;1217;139498;-62
2022/05/29 16:20:11;;;;;;;7.00;2.10;;;;;;;18.98;38.57;98452.35;233147;1217;139834;-63
2022/05/29 16:25:22;;;;;;;45.30;31.40;;;;;;;18.88;38.84;98441.16;233469;1217;139133;-61
2022/05/29 16:30:29;;;;;;;8.80;3.80;;;;;;;18.79;39.15;98434.83;233338;1217;140153;-61
2022/05/29 16:35:47;;;;;;;7.20;2.10;;;;;;;18.71;39.14;98427.40;233346;1217;139731;-62
2022/05/29 16:51:56;;;;;;;8.50;2.00;;;;;;;18.56;39.60;98424.95;233268;1217;139811;-62
2022/05/29 16:57:07;;;;;;;6.20;2.10;;;;;;;18.53;39.84;98420.05;233414;1216;139447;-62
2022/05/29 17:02:18;;;;;;;4.20;1.90;;;;;;;18.49;40.21;98418.32;233353;1217;138495;-62
2022/05/29 17:07:26;;;;;;;50.30;37.30;;;;;;;18.47;40.50;98421.09;233465;1216;139665;-64
2022/05/29 17:12:29;;;;;;;12.50;8.70;;;;;;;18.52;41.71;98410.29;233374;1217;139204;-63
2022/05/29 17:17:32;;;;;;;4.00;2.10;;;;;;;18.87;41.84;98405.75;232995;1217;139102;-64
2022/05/29 17:23:00;;;;;;;12.00;6.40;;;;;;;18.89;41.35;98399.55;233253;1216;138591;-63
2022/05/29 17:28:15;;;;;;;12.80;8.90;;;;;;;18.97;41.42;98399.30;233076;1217;140085;-62
2022/05/29 17:33:26;;;;;;;10.80;5.80;;;;;;;19.12;41.96;98399.23;233305;1217;139288;-63
2022/05/29 17:38:39;;;;;;;6.50;2.80;;;;;;;19.11;40.92;98402.41;233273;1217;139067;-62
2022/05/29 17:43:44;;;;;;;5.00;2.70;;;;;;;18.92;40.61;98410.98;233201;1217;138763;-62
2022/05/29 17:49:08;;;;;;;6.60;2.50;;;;;;;18.74;40.40;98413.42;233107;1217;138968;-62
2022/05/29 17:54:31;;;;;;;4.40;2.50;;;;;;;18.60;40.59;98415.34;232945;1217;139546;-60
2022/05/29 17:59:36;;;;;;;6.20;1.90;;;;;;;18.46;40.79;98405.54;233405;1215;141210;-62
2022/05/29 18:04:44;;;;;;;;;;;;;;;18.37;40.82;98404.56;233243;1216;139263;-60
2022/05/29 18:09:47;;;;;;;5.40;2.20;;;;;;;18.24;40.91;98408.00;233292;1217;126120;-61
2022/05/29 18:14:50;;;;;;;3.40;2.00;;;;;;;18.15;41.01;98411.60;233221;1217;138859;-60
2022/05/29 18:19:54;;;;;;;95.10;60.80;;;;;;;18.06;41.17;98399.27;233257;1217;139270;-63
2022/05/29 18:24:57;;;;;;;15.40;8.20;;;;;;;18.26;42.75;98396.14;233250;1217;139568;-61
2022/05/29 18:30:05;;;;;;;6.00;2.40;;;;;;;18.29;42.24;98390.29;233344;1217;140684;-61
2022/05/29 18:35:10;;;;;;;6.10;2.60;;;;;;;18.15;42.04;98397.41;233126;1217;138802;-60
2022/05/29 18:40:15;;;;;;;13.40;7.30;;;;;;;18.04;42.31;98404.34;233143;1219;139626;-60
2022/05/29 18:45:18;;;;;;;6.60;3.50;;;;;;;17.96;42.15;98409.35;233337;1217;139088;-61
2022/05/29 18:50:21;;;;;;;6.10;2.70;;;;;;;17.85;42.21;98407.37;233232;1217;139592;-59
2022/05/29 18:55:24;;;;;;;7.50;3.20;;;;;;;17.78;42.43;98404.11;233377;1215;139027;-61
2022/05/29 19:00:28;;;;;;;21.50;12.50;;;;;;;17.69;42.81;98388.08;233299;1217;138890;-62
2022/05/29 19:05:31;;;;;;;8.20;3.10;;;;;;;17.64;43.11;98397.45;233295;1215;139652;-62
2022/05/29 19:10:36;;;;;;;8.10;2.90;;;;;;;17.58;42.82;98402.35;233205;1215;139015;-62
2022/05/29 19:15:39;;;;;;;7.80;3.10;;;;;;;17.51;43.20;98397.38;232997;1217;139465;-61
2022/05/29 19:20:55;;;;;;;6.90;3.00;;;;;;;17.42;43.32;98396.96;233201;1217;142013;-61
2022/05/29 19:26:04;;;;;;;7.00;3.50;;;;;;;17.38;43.77;98404.45;233338;1217;138758;-61
2022/05/29 19:31:07;;;;;;;6.10;3.20;;;;;;;17.32;43.96;98396.96;233483;1216;139810;-62
2022/05/29 19:36:12;;;;;;;6.40;3.10;;;;;;;17.26;44.02;98401.09;233217;1217;139302;-62
2022/05/29 19:41:29;;;;;;;6.30;3.20;;;;;;;17.24;44.25;98398.02;233702;1217;139151;-62
2022/05/29 19:46:33;;;;;;;5.70;2.50;;;;;;;17.21;44.48;98387.11;233798;1217;139537;-63
2022/05/29 19:51:36;;;;;;;6.70;2.90;;;;;;;17.15;44.40;98381.55;233832;1216;139257;-62
2022/05/29 19:56:39;;;;;;;7.40;2.70;;;;;;;17.13;44.62;98382.09;233889;1216;139895;-62
2022/05/29 20:01:42;;;;;;;5.70;2.40;;;;;;;17.10;44.44;98375.84;234070;1216;138409;-62
2022/05/29 20:06:45;;;;;;;5.90;3.10;;;;;;;17.04;44.59;98371.32;233836;1215;138930;-63
2022/05/29 20:11:49;;;;;;;6.70;2.80;;;;;;;17.02;44.87;98364.20;233738;1216;138731;-64
2022/05/29 20:16:53;;;;;;;7.60;3.20;;;;;;;16.98;45.04;98368.17;233387;1215;138904;-63
2022/05/29 20:21:57;;;;;;;5.70;2.70;;;;;;;16.95;45.19;98369.08;233312;1217;138967;-62
2022/05/29 20:27:01;;;;;;;6.60;3.10;;;;;;;16.94;45.18;98367.35;233375;1216;139166;-65
2022/05/29 20:32:06;;;;;;;5.30;2.60;;;;;;;16.90;45.47;98365.13;233190;1217;138799;-63
2022/05/29 20:37:10;;;;;;;7.40;3.00;;;;;;;16.84;45.36;98353.86;233277;1217;139987;-62
2022/05/29 20:42:14;;;;;;;6.80;2.80;;;;;;;16.81;45.50;98341.21;233130;1217;139154;-63
2022/05/29 20:47:24;;;;;;;8.20;2.40;;;;;;;16.78;45.57;98332.24;233095;1217;139029;-64
2022/05/29 20:52:28;;;;;;;5.50;3.00;;;;;;;16.77;46.05;98341.30;233208;1217;138790;-63
2022/05/29 20:57:33;;;;;;;5.90;2.70;;;;;;;16.74;46.10;98342.23;233069;1217;139670;-64
2022/05/29 21:02:37;;;;;;;7.60;3.30;;;;;;;16.71;45.90;98339.84;233325;1217;138971;-63
2022/05/29 21:07:41;;;;;;;4.80;2.10;;;;;;;16.70;46.17;98329.71;233246;1217;138558;-64
2022/05/29 21:12:45;;;;;;;5.00;2.30;;;;;;;16.69;45.90;98326.46;232991;1217;140136;-65
2022/05/29 21:17:50;;;;;;;4.70;2.20;;;;;;;16.66;45.96;98322.64;233124;1217;139314;-63
2022/05/29 21:22:54;;;;;;;2.80;1.80;;;;;;;16.64;45.94;98322.15;233112;1217;138862;-65
2022/05/29 21:27:58;;;;;;;4.90;1.90;;;;;;;16.63;45.87;98323.17;233171;1217;139406;-64
2022/05/29 21:33:02;;;;;;;4.40;2.00;;;;;;;16.62;46.08;98323.91;233113;1217;139016;-64
2022/05/29 21:38:06;;;;;;;4.80;2.30;;;;;;;16.58;45.64;98313.21;233057;1218;138982;-64
2022/05/29 21:43:09;;;;;;;4.70;2.10;;;;;;;16.59;45.92;98320.59;233197;1218;138629;-64
2022/05/29 21:48:14;;;;;;;4.00;2.10;;;;;;;16.57;45.75;98328.75;233228;1217;139800;-64
2022/05/29 21:53:18;;;;;;;4.60;2.00;;;;;;;16.59;46.05;98339.77;233375;1217;139082;-63
2022/05/29 21:58:21;;;;;;;3.60;2.20;;;;;;;16.58;45.87;98336.86;233496;1217;141604;-64
2022/05/29 22:03:25;;;;;;;6.90;2.80;;;;;;;16.52;45.84;98323.03;233550;1216;138896;-64
2022/05/29 22:08:29;;;;;;;3.30;2.40;;;;;;;16.51;45.95;98330.73;233331;1217;138896;-63
2022/05/29 22:13:32;;;;;;;6.60;2.90;;;;;;;16.49;46.13;98338.23;233649;1217;139398;-64
2022/05/29 22:18:36;;;;;;;6.90;2.40;;;;;;;16.47;46.12;98353.67;233351;1215;138991;-64
2022/05/29 22:23:39;;;;;;;2.60;1.70;;;;;;;16.43;46.21;98352.24;233398;1217;138891;-64
2022/05/29 22:28:43;;;;;;;6.00;2.40;;;;;;;16.40;46.34;98346.37;233318;1217;139055;-63
2022/05/29 22:33:46;;;;;;;3.30;1.90;;;;;;;16.35;46.25;98350.38;233245;1217;139348;-63
2022/05/29 22:38:49;;;;;;;3.80;1.90;;;;;;;16.31;46.35;98350.16;233366;1216;139378;-63
2022/05/29 22:43:53;;;;;;;4.40;1.70;;;;;;;16.30;46.56;98348.02;233481;1217;139073;-62
2022/05/29 22:49:17;;;;;;;5.50;1.80;;;;;;;16.24;46.65;98333.86;233301;1217;138977;-63
2022/05/29 22:54:21;;;;;;;3.00;1.80;;;;;;;16.21;46.93;98323.27;233201;1217;139493;-63
2022/05/29 22:59:24;;;;;;;3.40;1.70;;;;;;;16.19;46.73;98325.92;233208;1217;139052;-63
2022/05/29 23:04:38;;;;;;;6.30;1.70;;;;;;;16.15;47.14;98334.23;233326;1217;138800;-63
2022/05/29 23:09:41;;;;;;;3.70;1.60;;;;;;;16.07;47.15;98345.38;233332;1217;139561;-64
2022/05/29 23:14:44;;;;;;;4.00;1.90;;;;;;;16.00;47.30;98340.64;233294;1216;139213;-62
2022/05/29 23:19:47;;;;;;;3.90;1.90;;;;;;;15.99;47.20;98335.38;233493;1217;138676;-61
2022/05/29 23:24:59;;;;;;;6.70;2.60;;;;;;;15.99;47.54;98341.65;233180;1218;139349;-63
2022/05/29 23:30:07;;;;;;;8.40;3.40;;;;;;;15.96;47.72;98348.41;233204;1217;138584;-64
2022/05/29 23:35:16;;;;;;;4.90;2.70;;;;;;;15.84;48.24;98342.58;233354;1217;139670;-61
2022/05/29 23:40:22;;;;;;;5.80;2.90;;;;;;;15.72;48.75;98338.46;233532;1216;138467;-63
2022/05/29 23:45:28;;;;;;;7.00;3.10;;;;;;;15.60;48.94;98337.86;233526;1217;139186;-62
2022/05/29 23:50:32;;;;;;;;;;;;;;;15.47;49.45;98341.55;233425;1217;138880;-62
2022/05/29 23:55:35;;;;;;;7.80;3.00;;;;;;;15.32;49.76;98336.70;233490;1217;125872;-63
